HVN985 VVNB-VOHS
Flight info
| Callsign | HVN985 |
|---|---|
| Flight time | N/A |
| Altitude | 32000 |
| Route | HUVAN2A BQ B214 LADON/N0478F320 B214 AKSAG B465 MDY/N0474F340 B465 CEA Q11 SURUP W41 ANBAS VITUR8 |
| Aircraft | A321/M-SDE3FGHIRWY/LB1 |
Departure
| Time | 2026-05-08 07:06 |
|---|---|
| Airport | Noi Bai International Airport (VVNB) |
Arrival
| Time | N/A |
|---|---|
| Airport | Rajiv Gandhi International Airport (VOHS) |
| Time | Latitude | Longitude | Altitude | Speed | Heading |
|---|---|---|---|---|---|
| 2026-05-08 06:31 | 21.21914 | 105.79214 | 49 ft | 0 kts | 197° |
| 2026-05-08 06:56 | 21.21917 | 105.79215 | 49 ft | 2 kts | 197° |
| 2026-05-08 06:56 | 21.21933 | 105.79220 | 47 ft | 2 kts | 200° |
| 2026-05-08 06:56 | 21.21948 | 105.79226 | 47 ft | 2 kts | 200° |
| 2026-05-08 06:56 | 21.21964 | 105.79232 | 44 ft | 2 kts | 202° |
| 2026-05-08 06:57 | 21.21979 | 105.79239 | 48 ft | 2 kts | 205° |
| 2026-05-08 06:57 | 21.21994 | 105.79247 | 46 ft | 2 kts | 211° |
| 2026-05-08 06:57 | 21.22008 | 105.79257 | 47 ft | 2 kts | 226° |
| 2026-05-08 06:57 | 21.22017 | 105.79271 | 44 ft | 2 kts | 270° |
| 2026-05-08 06:58 | 21.22016 | 105.79283 | 45 ft | 1 kts | 288° |
| 2026-05-08 06:58 | 21.22016 | 105.79284 | 45 ft | 0 kts | 288° |
| 2026-05-08 07:00 | 21.22017 | 105.79279 | 45 ft | 2 kts | 287° |
| 2026-05-08 07:01 | 21.22024 | 105.79253 | 47 ft | 5 kts | 285° |
| 2026-05-08 07:01 | 21.22037 | 105.79204 | 49 ft | 8 kts | 287° |
| 2026-05-08 07:01 | 21.22061 | 105.79141 | 48 ft | 10 kts | 308° |
| 2026-05-08 07:01 | 21.22133 | 105.79129 | 49 ft | 12 kts | 343° |
| 2026-05-08 07:02 | 21.22175 | 105.79051 | 49 ft | 14 kts | 287° |
| 2026-05-08 07:02 | 21.22204 | 105.78948 | 50 ft | 15 kts | 287° |
| 2026-05-08 07:02 | 21.22236 | 105.78842 | 50 ft | 15 kts | 287° |
| 2026-05-08 07:02 | 21.22266 | 105.78736 | 50 ft | 10 kts | 286° |
| 2026-05-08 07:03 | 21.22287 | 105.78660 | 49 ft | 11 kts | 287° |
| 2026-05-08 07:03 | 21.22335 | 105.78607 | 50 ft | 10 kts | 351° |
| 2026-05-08 07:03 | 21.22400 | 105.78623 | 51 ft | 9 kts | 17° |
| 2026-05-08 07:03 | 21.22455 | 105.78651 | 51 ft | 9 kts | 54° |
| 2026-05-08 07:04 | 21.22452 | 105.78690 | 51 ft | 0 kts | 109° |
| 2026-05-08 07:05 | 21.22450 | 105.78695 | 48 ft | 3 kts | 109° |
| 2026-05-08 07:05 | 21.22424 | 105.78777 | 49 ft | 30 kts | 104° |
| 2026-05-08 07:05 | 21.22294 | 105.79235 | 51 ft | 96 kts | 107° |
| 2026-05-08 07:05 | 21.22043 | 105.80104 | 49 ft | 149 kts | 107° |
| 2026-05-08 07:06 | 21.21694 | 105.81319 | 58 ft | 190 kts | 108° |
| 2026-05-08 07:06 | 21.21310 | 105.82677 | 716 ft | 183 kts | 105° |
| 2026-05-08 07:06 | 21.20930 | 105.83985 | 1048 ft | 195 kts | 105° |
| 2026-05-08 07:06 | 21.20517 | 105.85440 | 1231 ft | 213 kts | 105° |
| 2026-05-08 07:07 | 21.20061 | 105.87056 | 1344 ft | 236 kts | 108° |
| 2026-05-08 07:07 | 21.19220 | 105.88654 | 1610 ft | 255 kts | 130° |
| 2026-05-08 07:07 | 21.17818 | 105.89843 | 2172 ft | 262 kts | 152° |
| 2026-05-08 07:07 | 21.16061 | 105.90393 | 2787 ft | 267 kts | 175° |
| 2026-05-08 07:08 | 21.14230 | 105.90174 | 3384 ft | 273 kts | 198° |
| 2026-05-08 07:08 | 21.12559 | 105.89160 | 3999 ft | 276 kts | 222° |
| 2026-05-08 07:08 | 21.11408 | 105.87520 | 4605 ft | 279 kts | 246° |
| 2026-05-08 07:08 | 21.10965 | 105.85506 | 5172 ft | 281 kts | 271° |
| 2026-05-08 07:09 | 21.11314 | 105.83488 | 5740 ft | 282 kts | 295° |
| 2026-05-08 07:09 | 21.12376 | 105.81722 | 6338 ft | 284 kts | 309° |
| 2026-05-08 07:09 | 21.13623 | 105.80073 | 6901 ft | 286 kts | 309° |
| 2026-05-08 07:09 | 21.14882 | 105.78413 | 7459 ft | 288 kts | 309° |
| 2026-05-08 07:10 | 21.16149 | 105.76736 | 8018 ft | 290 kts | 309° |
| 2026-05-08 07:10 | 21.17423 | 105.75046 | 8578 ft | 293 kts | 309° |
| 2026-05-08 07:10 | 21.18707 | 105.73342 | 9137 ft | 295 kts | 309° |
| 2026-05-08 07:10 | 21.19950 | 105.71590 | 9672 ft | 297 kts | 300° |
| 2026-05-08 07:11 | 21.20704 | 105.69532 | 10151 ft | 299 kts | 280° |
| 2026-05-08 07:11 | 21.20843 | 105.67298 | 10489 ft | 307 kts | 270° |
| 2026-05-08 07:11 | 21.20845 | 105.64941 | 10601 ft | 324 kts | 270° |
| 2026-05-08 07:11 | 21.20844 | 105.62464 | 10722 ft | 340 kts | 270° |
| 2026-05-08 07:12 | 21.20842 | 105.59872 | 10838 ft | 356 kts | 270° |
| 2026-05-08 07:12 | 21.20841 | 105.57160 | 10947 ft | 370 kts | 270° |
| 2026-05-08 07:12 | 21.20841 | 105.54361 | 11077 ft | 384 kts | 270° |
| 2026-05-08 07:12 | 21.20843 | 105.51446 | 11188 ft | 397 kts | 270° |
| 2026-05-08 07:13 | 21.20846 | 105.48442 | 11386 ft | 407 kts | 270° |
| 2026-05-08 07:13 | 21.20848 | 105.45398 | 11773 ft | 411 kts | 270° |
| 2026-05-08 07:13 | 21.20849 | 105.42326 | 12204 ft | 413 kts | 270° |
| 2026-05-08 07:13 | 21.20851 | 105.39243 | 12654 ft | 415 kts | 270° |
| 2026-05-08 07:14 | 21.20852 | 105.36139 | 13115 ft | 417 kts | 270° |
| 2026-05-08 07:14 | 21.20853 | 105.33021 | 13581 ft | 420 kts | 270° |
| 2026-05-08 07:14 | 21.20851 | 105.29886 | 13982 ft | 422 kts | 270° |
| 2026-05-08 07:14 | 21.20847 | 105.26730 | 14360 ft | 424 kts | 270° |
| 2026-05-08 07:15 | 21.20842 | 105.23557 | 14739 ft | 426 kts | 270° |
| 2026-05-08 07:15 | 21.20839 | 105.20373 | 15102 ft | 428 kts | 270° |
| 2026-05-08 07:15 | 21.20838 | 105.17175 | 15462 ft | 431 kts | 270° |
| 2026-05-08 07:15 | 21.20836 | 105.13960 | 15809 ft | 432 kts | 270° |
| 2026-05-08 07:16 | 21.20833 | 105.10726 | 16156 ft | 434 kts | 270° |
| 2026-05-08 07:16 | 21.20844 | 105.07484 | 16496 ft | 436 kts | 271° |
| 2026-05-08 07:16 | 21.20871 | 105.04227 | 16821 ft | 438 kts | 271° |
| 2026-05-08 07:16 | 21.20909 | 105.00953 | 17154 ft | 440 kts | 271° |
| 2026-05-08 07:17 | 21.20950 | 104.97664 | 17474 ft | 442 kts | 271° |
| 2026-05-08 07:17 | 21.20986 | 104.94359 | 17813 ft | 444 kts | 271° |
| 2026-05-08 07:17 | 21.21015 | 104.91044 | 18109 ft | 446 kts | 270° |
| 2026-05-08 07:17 | 21.21042 | 104.87713 | 18385 ft | 448 kts | 270° |
| 2026-05-08 07:18 | 21.21066 | 104.84364 | 18642 ft | 450 kts | 270° |
| 2026-05-08 07:18 | 21.21092 | 104.81010 | 18894 ft | 451 kts | 270° |
| 2026-05-08 07:18 | 21.21117 | 104.77682 | 19150 ft | 453 kts | 270° |
| 2026-05-08 07:18 | 21.21138 | 104.74257 | 19412 ft | 454 kts | 270° |
| 2026-05-08 07:19 | 21.21161 | 104.70871 | 19674 ft | 455 kts | 270° |
| 2026-05-08 07:19 | 21.21186 | 104.67480 | 19930 ft | 457 kts | 270° |
| 2026-05-08 07:19 | 21.21212 | 104.64067 | 20171 ft | 458 kts | 270° |
| 2026-05-08 07:19 | 21.21238 | 104.60650 | 20406 ft | 459 kts | 270° |
| 2026-05-08 07:20 | 21.21259 | 104.57236 | 20651 ft | 461 kts | 270° |
| 2026-05-08 07:20 | 21.21275 | 104.53786 | 20922 ft | 462 kts | 270° |
| 2026-05-08 07:20 | 21.21290 | 104.50334 | 21171 ft | 463 kts | 270° |
| 2026-05-08 07:20 | 21.21311 | 104.46880 | 21398 ft | 464 kts | 270° |
| 2026-05-08 07:21 | 21.21333 | 104.43419 | 21624 ft | 465 kts | 270° |
| 2026-05-08 07:21 | 21.21353 | 104.39983 | 21821 ft | 467 kts | 270° |
| 2026-05-08 07:21 | 21.21370 | 104.36507 | 22049 ft | 468 kts | 270° |
| 2026-05-08 07:21 | 21.21385 | 104.33018 | 22276 ft | 469 kts | 269° |
| 2026-05-08 07:22 | 21.21401 | 104.29518 | 22476 ft | 470 kts | 269° |
| 2026-05-08 07:22 | 21.21415 | 104.25960 | 22691 ft | 472 kts | 269° |
| 2026-05-08 07:22 | 21.21428 | 104.22489 | 22919 ft | 473 kts | 269° |
| 2026-05-08 07:22 | 21.21446 | 104.18924 | 23159 ft | 474 kts | 269° |
| 2026-05-08 07:23 | 21.21459 | 104.15433 | 23367 ft | 474 kts | 269° |
| 2026-05-08 07:23 | 21.21471 | 104.11895 | 23609 ft | 475 kts | 269° |
| 2026-05-08 07:23 | 21.21481 | 104.08361 | 23886 ft | 473 kts | 269° |
| 2026-05-08 07:23 | 21.21488 | 104.04797 | 24145 ft | 472 kts | 268° |
| 2026-05-08 07:24 | 21.21252 | 104.01304 | 24386 ft | 471 kts | 263° |
| 2026-05-08 07:24 | 21.20899 | 103.97809 | 24639 ft | 470 kts | 263° |
| 2026-05-08 07:24 | 21.20545 | 103.94332 | 24896 ft | 469 kts | 263° |
| 2026-05-08 07:24 | 21.20189 | 103.90851 | 25142 ft | 469 kts | 263° |
| 2026-05-08 07:25 | 21.19840 | 103.87426 | 25380 ft | 469 kts | 263° |
| 2026-05-08 07:25 | 21.19488 | 103.83955 | 25666 ft | 468 kts | 263° |
| 2026-05-08 07:25 | 21.18781 | 103.77035 | 26198 ft | 466 kts | 263° |
| 2026-05-08 07:26 | 21.18425 | 103.73582 | 26488 ft | 466 kts | 263° |
| 2026-05-08 07:26 | 21.18071 | 103.70142 | 26757 ft | 465 kts | 263° |
| 2026-05-08 07:26 | 21.17718 | 103.66705 | 27015 ft | 464 kts | 263° |
| 2026-05-08 07:26 | 21.17364 | 103.63263 | 27283 ft | 464 kts | 263° |
| 2026-05-08 07:27 | 21.17010 | 103.59838 | 27556 ft | 463 kts | 263° |
| 2026-05-08 07:27 | 21.16655 | 103.56409 | 27819 ft | 463 kts | 263° |
| 2026-05-08 07:27 | 21.16302 | 103.52982 | 28070 ft | 462 kts | 263° |
| 2026-05-08 07:27 | 21.15948 | 103.49554 | 28322 ft | 462 kts | 263° |
| 2026-05-08 07:28 | 21.15592 | 103.46140 | 28564 ft | 462 kts | 263° |
| 2026-05-08 07:28 | 21.15234 | 103.42721 | 28818 ft | 461 kts | 263° |
| 2026-05-08 07:28 | 21.14876 | 103.39308 | 29073 ft | 461 kts | 263° |
| 2026-05-08 07:28 | 21.14519 | 103.35900 | 29335 ft | 460 kts | 263° |
| 2026-05-08 07:29 | 21.14166 | 103.32527 | 29596 ft | 460 kts | 263° |
| 2026-05-08 07:29 | 21.13808 | 103.29132 | 29851 ft | 459 kts | 263° |
| 2026-05-08 07:29 | 21.13449 | 103.25736 | 30091 ft | 459 kts | 262° |
| 2026-05-08 07:29 | 21.13090 | 103.22342 | 30301 ft | 458 kts | 263° |
| 2026-05-08 07:30 | 21.12729 | 103.18948 | 30524 ft | 458 kts | 263° |
| 2026-05-08 07:30 | 21.12368 | 103.15566 | 30731 ft | 457 kts | 262° |
| 2026-05-08 07:30 | 21.12010 | 103.12187 | 30954 ft | 456 kts | 262° |
| 2026-05-08 07:30 | 21.11656 | 103.08822 | 31174 ft | 455 kts | 262° |
| 2026-05-08 07:31 | 21.11299 | 103.05449 | 31385 ft | 455 kts | 262° |
| 2026-05-08 07:31 | 21.10940 | 103.02086 | 31583 ft | 454 kts | 262° |
| 2026-05-08 07:31 | 21.10583 | 102.98724 | 31798 ft | 453 kts | 263° |
| 2026-05-08 07:31 | 21.10346 | 102.96503 | 31910 ft | 454 kts | 262° |
| 2026-05-08 07:32 | 21.09863 | 102.92015 | 31974 ft | 453 kts | 262° |
| 2026-05-08 07:32 | 21.09502 | 102.88669 | 32173 ft | 452 kts | 262° |
| 2026-05-08 07:32 | 21.09141 | 102.85329 | 32410 ft | 451 kts | 262° |
| 2026-05-08 07:32 | 21.08785 | 102.82037 | 32636 ft | 450 kts | 262° |
| 2026-05-08 07:33 | 21.08426 | 102.78708 | 32849 ft | 450 kts | 262° |
| 2026-05-08 07:33 | 21.08067 | 102.75387 | 33067 ft | 449 kts | 262° |
| 2026-05-08 07:33 | 21.07824 | 102.73149 | 33209 ft | 448 kts | 262° |
| 2026-05-08 07:33 | 21.07345 | 102.68761 | 33495 ft | 447 kts | 262° |
| 2026-05-08 07:34 | 21.06983 | 102.65459 | 33701 ft | 446 kts | 262° |
| 2026-05-08 07:34 | 21.06738 | 102.63225 | 33843 ft | 446 kts | 262° |
| 2026-05-08 07:34 | 21.06376 | 102.59929 | 33939 ft | 447 kts | 262° |
| 2026-05-08 07:35 | 21.05527 | 102.52197 | 33955 ft | 451 kts | 262° |
| 2026-05-08 07:35 | 21.04917 | 102.46649 | 33959 ft | 452 kts | 263° |
| 2026-05-08 07:36 | 21.04182 | 102.39970 | 33961 ft | 452 kts | 262° |
| 2026-05-08 07:36 | 21.03443 | 102.33295 | 33960 ft | 452 kts | 262° |
| 2026-05-08 07:37 | 21.02575 | 102.25528 | 33972 ft | 452 kts | 262° |
| 2026-05-08 07:37 | 21.01823 | 102.18838 | 33987 ft | 453 kts | 262° |
| 2026-05-08 07:38 | 21.01196 | 102.13236 | 33991 ft | 453 kts | 263° |
| 2026-05-08 07:38 | 21.00452 | 102.06582 | 34000 ft | 453 kts | 262° |
| 2026-05-08 07:39 | 20.99696 | 101.99887 | 33999 ft | 453 kts | 263° |
| 2026-05-08 07:39 | 20.98939 | 101.93188 | 34002 ft | 453 kts | 263° |
| 2026-05-08 07:40 | 20.98178 | 101.86494 | 34003 ft | 453 kts | 263° |
| 2026-05-08 07:40 | 20.97412 | 101.79803 | 34006 ft | 453 kts | 263° |
| 2026-05-08 07:41 | 20.96646 | 101.73111 | 34008 ft | 453 kts | 263° |
| 2026-05-08 07:41 | 20.95879 | 101.66428 | 34013 ft | 453 kts | 262° |
| 2026-05-08 07:42 | 20.95116 | 101.59792 | 34017 ft | 452 kts | 263° |
| 2026-05-08 07:42 | 20.94343 | 101.53117 | 34023 ft | 452 kts | 263° |
| 2026-05-08 07:43 | 20.93565 | 101.46423 | 34024 ft | 452 kts | 263° |
| 2026-05-08 07:43 | 20.92789 | 101.39744 | 34023 ft | 452 kts | 263° |
| 2026-05-08 07:44 | 20.92006 | 101.33073 | 34023 ft | 452 kts | 262° |
| 2026-05-08 07:44 | 20.91219 | 101.26402 | 34022 ft | 452 kts | 262° |
| 2026-05-08 07:45 | 20.90437 | 101.19781 | 34016 ft | 451 kts | 262° |
| 2026-05-08 07:45 | 20.89650 | 101.13123 | 34016 ft | 451 kts | 263° |
| 2026-05-08 07:46 | 20.88866 | 101.06471 | 34008 ft | 450 kts | 263° |
| 2026-05-08 07:46 | 20.88081 | 100.99836 | 34001 ft | 450 kts | 263° |
| 2026-05-08 07:47 | 20.87290 | 100.93194 | 34002 ft | 450 kts | 263° |
| 2026-05-08 07:47 | 20.86496 | 100.86562 | 33997 ft | 450 kts | 262° |
| 2026-05-08 07:48 | 20.85697 | 100.79926 | 33986 ft | 450 kts | 262° |
| 2026-05-08 07:48 | 20.84900 | 100.73299 | 33980 ft | 449 kts | 262° |
| 2026-05-08 07:49 | 20.84091 | 100.66670 | 33977 ft | 449 kts | 262° |
| 2026-05-08 07:49 | 20.83289 | 100.60088 | 33969 ft | 449 kts | 262° |
| 2026-05-08 07:50 | 20.82488 | 100.53466 | 33966 ft | 449 kts | 262° |
| 2026-05-08 07:50 | 20.82057 | 100.46817 | 33959 ft | 450 kts | 274° |
| 2026-05-08 07:51 | 20.83402 | 100.40290 | 33962 ft | 452 kts | 285° |
| 2026-05-08 07:51 | 20.85165 | 100.33839 | 33959 ft | 452 kts | 284° |
| 2026-05-08 07:52 | 20.86913 | 100.27391 | 33958 ft | 452 kts | 284° |
| 2026-05-08 07:52 | 20.88662 | 100.20936 | 33964 ft | 451 kts | 284° |
| 2026-05-08 07:53 | 20.90402 | 100.14481 | 33966 ft | 451 kts | 284° |
| 2026-05-08 07:53 | 20.92144 | 100.08027 | 33970 ft | 451 kts | 284° |
| 2026-05-08 07:54 | 20.93881 | 100.01587 | 33975 ft | 451 kts | 284° |
| 2026-05-08 07:54 | 20.95609 | 99.95191 | 33973 ft | 450 kts | 284° |
| 2026-05-08 07:55 | 20.97337 | 99.88761 | 33978 ft | 450 kts | 284° |
| 2026-05-08 07:55 | 20.99058 | 99.82333 | 33985 ft | 449 kts | 284° |
| 2026-05-08 07:56 | 21.00780 | 99.75912 | 33988 ft | 449 kts | 284° |
| 2026-05-08 07:56 | 21.02495 | 99.69483 | 33986 ft | 448 kts | 284° |
| 2026-05-08 07:57 | 21.04202 | 99.63074 | 33985 ft | 448 kts | 284° |
| 2026-05-08 07:57 | 21.05912 | 99.56661 | 33983 ft | 448 kts | 284° |
| 2026-05-08 07:58 | 21.07620 | 99.50252 | 33981 ft | 447 kts | 284° |
| 2026-05-08 07:58 | 21.09317 | 99.43889 | 33978 ft | 447 kts | 284° |
| 2026-05-08 07:59 | 21.11017 | 99.37486 | 33971 ft | 447 kts | 283° |
| 2026-05-08 07:59 | 21.12713 | 99.31076 | 33971 ft | 447 kts | 283° |
| 2026-05-08 08:00 | 21.14402 | 99.24666 | 33963 ft | 447 kts | 283° |
| 2026-05-08 08:00 | 21.16091 | 99.18258 | 33955 ft | 446 kts | 283° |
| 2026-05-08 08:01 | 21.17777 | 99.11861 | 33951 ft | 447 kts | 283° |
| 2026-05-08 08:01 | 21.19466 | 99.05457 | 33948 ft | 446 kts | 283° |
| 2026-05-08 08:02 | 21.21154 | 98.99058 | 33939 ft | 446 kts | 283° |
| 2026-05-08 08:02 | 21.22831 | 98.92662 | 33929 ft | 446 kts | 283° |
| 2026-05-08 08:03 | 21.24492 | 98.86305 | 33928 ft | 446 kts | 283° |
| 2026-05-08 08:03 | 21.26166 | 98.79910 | 33925 ft | 445 kts | 283° |
| 2026-05-08 08:04 | 21.27768 | 98.73756 | 33923 ft | 445 kts | 283° |
| 2026-05-08 08:04 | 21.29431 | 98.67363 | 33909 ft | 445 kts | 283° |
| 2026-05-08 08:05 | 21.31090 | 98.60981 | 33904 ft | 444 kts | 283° |
| 2026-05-08 08:05 | 21.32752 | 98.54591 | 33905 ft | 445 kts | 283° |
| 2026-05-08 08:06 | 21.34406 | 98.48199 | 33904 ft | 445 kts | 282° |
| 2026-05-08 08:06 | 21.36057 | 98.41810 | 33905 ft | 444 kts | 282° |
| 2026-05-08 08:07 | 21.37695 | 98.35475 | 33905 ft | 444 kts | 282° |
| 2026-05-08 08:07 | 21.39342 | 98.29095 | 33906 ft | 444 kts | 282° |
| 2026-05-08 08:08 | 21.40988 | 98.22712 | 33907 ft | 444 kts | 282° |
| 2026-05-08 08:08 | 21.42628 | 98.16332 | 33910 ft | 444 kts | 282° |
| 2026-05-08 08:09 | 21.44275 | 98.09947 | 33914 ft | 444 kts | 282° |
| 2026-05-08 08:09 | 21.45916 | 98.03566 | 33913 ft | 443 kts | 282° |
| 2026-05-08 08:10 | 21.47454 | 97.97514 | 33918 ft | 443 kts | 282° |
| 2026-05-08 08:10 | 21.49074 | 97.91139 | 33922 ft | 443 kts | 282° |
| 2026-05-08 08:11 | 21.50701 | 97.84755 | 33924 ft | 443 kts | 282° |
| 2026-05-08 08:11 | 21.52329 | 97.78380 | 33924 ft | 442 kts | 282° |
| 2026-05-08 08:12 | 21.53951 | 97.72009 | 33926 ft | 442 kts | 282° |
| 2026-05-08 08:12 | 21.55566 | 97.65632 | 33924 ft | 442 kts | 282° |
| 2026-05-08 08:13 | 21.57176 | 97.59259 | 33911 ft | 442 kts | 282° |
| 2026-05-08 08:13 | 21.58790 | 97.52896 | 33907 ft | 442 kts | 282° |
| 2026-05-08 08:14 | 21.60399 | 97.46528 | 33907 ft | 441 kts | 281° |
| 2026-05-08 08:14 | 21.61995 | 97.40168 | 33894 ft | 441 kts | 281° |
| 2026-05-08 08:15 | 21.63595 | 97.33796 | 33889 ft | 441 kts | 281° |
| 2026-05-08 08:15 | 21.65186 | 97.27436 | 33891 ft | 441 kts | 281° |
| 2026-05-08 08:16 | 21.66779 | 97.21075 | 33887 ft | 440 kts | 281° |
| 2026-05-08 08:16 | 21.68375 | 97.14718 | 33886 ft | 440 kts | 281° |
| 2026-05-08 08:17 | 21.69960 | 97.08371 | 33882 ft | 440 kts | 281° |
| 2026-05-08 08:17 | 21.71538 | 97.02017 | 33884 ft | 439 kts | 281° |
| 2026-05-08 08:18 | 21.73107 | 96.95688 | 33885 ft | 439 kts | 281° |
| 2026-05-08 08:18 | 21.74685 | 96.89337 | 33879 ft | 438 kts | 281° |
| 2026-05-08 08:19 | 21.76262 | 96.83012 | 33881 ft | 438 kts | 281° |
| 2026-05-08 08:19 | 21.77835 | 96.76676 | 33882 ft | 438 kts | 281° |
| 2026-05-08 08:20 | 21.79390 | 96.70339 | 33882 ft | 437 kts | 281° |
| 2026-05-08 08:20 | 21.80942 | 96.64016 | 33883 ft | 437 kts | 281° |
| 2026-05-08 08:21 | 21.82499 | 96.57676 | 33885 ft | 437 kts | 281° |
| 2026-05-08 08:21 | 21.84061 | 96.51351 | 33879 ft | 437 kts | 281° |
| 2026-05-08 08:22 | 21.85616 | 96.45038 | 33877 ft | 437 kts | 281° |
| 2026-05-08 08:22 | 21.87137 | 96.38815 | 33864 ft | 437 kts | 281° |
| 2026-05-08 08:23 | 21.88681 | 96.32491 | 33867 ft | 437 kts | 281° |
| 2026-05-08 08:23 | 21.90222 | 96.26153 | 33861 ft | 437 kts | 281° |
| 2026-05-08 08:24 | 21.91764 | 96.19816 | 33859 ft | 437 kts | 281° |
| 2026-05-08 08:24 | 21.93050 | 96.14518 | 33864 ft | 437 kts | 280° |
| 2026-05-08 08:25 | 21.93862 | 96.08131 | 33862 ft | 432 kts | 272° |
| 2026-05-08 08:25 | 21.94419 | 96.01689 | 33856 ft | 432 kts | 272° |
| 2026-05-08 08:26 | 21.94980 | 95.95238 | 33857 ft | 432 kts | 272° |
| 2026-05-08 08:26 | 21.95540 | 95.88793 | 33854 ft | 432 kts | 272° |
| 2026-05-08 08:27 | 21.96091 | 95.82355 | 33856 ft | 432 kts | 272° |
| 2026-05-08 08:27 | 21.96642 | 95.75915 | 33861 ft | 432 kts | 272° |
| 2026-05-08 08:28 | 21.97195 | 95.69472 | 33855 ft | 432 kts | 272° |
| 2026-05-08 08:28 | 21.97746 | 95.63030 | 33858 ft | 431 kts | 272° |
| 2026-05-08 08:29 | 21.98290 | 95.56592 | 33861 ft | 431 kts | 272° |
| 2026-05-08 08:29 | 21.98825 | 95.50161 | 33856 ft | 431 kts | 272° |
| 2026-05-08 08:30 | 21.99363 | 95.43732 | 33860 ft | 431 kts | 272° |
| 2026-05-08 08:30 | 22.00174 | 95.34093 | 33867 ft | 430 kts | 272° |
| 2026-05-08 08:31 | 22.00712 | 95.27664 | 33854 ft | 430 kts | 272° |
| 2026-05-08 08:31 | 22.01241 | 95.21250 | 33856 ft | 430 kts | 272° |
| 2026-05-08 08:32 | 22.01762 | 95.14823 | 33859 ft | 430 kts | 272° |
| 2026-05-08 08:32 | 22.02294 | 95.08400 | 33863 ft | 430 kts | 272° |
| 2026-05-08 08:33 | 22.02818 | 95.01987 | 33865 ft | 430 kts | 271° |
| 2026-05-08 08:33 | 22.03330 | 94.95570 | 33868 ft | 430 kts | 272° |
| 2026-05-08 08:34 | 22.03848 | 94.89201 | 33869 ft | 430 kts | 272° |
| 2026-05-08 08:34 | 22.04369 | 94.82785 | 33877 ft | 430 kts | 271° |
| 2026-05-08 08:35 | 22.04875 | 94.76369 | 33878 ft | 430 kts | 271° |
| 2026-05-08 08:35 | 22.05381 | 94.69952 | 33883 ft | 430 kts | 271° |
| 2026-05-08 08:36 | 22.05887 | 94.63531 | 33889 ft | 430 kts | 271° |
| 2026-05-08 08:36 | 22.06392 | 94.57069 | 33895 ft | 430 kts | 271° |
| 2026-05-08 08:37 | 22.06904 | 94.50646 | 33895 ft | 430 kts | 271° |
| 2026-05-08 08:37 | 22.07412 | 94.44258 | 33897 ft | 430 kts | 271° |
| 2026-05-08 08:38 | 22.07904 | 94.37840 | 33897 ft | 430 kts | 271° |
| 2026-05-08 08:38 | 22.08390 | 94.31412 | 33901 ft | 430 kts | 271° |
| 2026-05-08 08:39 | 22.08877 | 94.24988 | 33899 ft | 430 kts | 271° |
| 2026-05-08 08:39 | 22.09362 | 94.18564 | 33894 ft | 430 kts | 271° |
| 2026-05-08 08:40 | 22.09848 | 94.12147 | 33896 ft | 430 kts | 271° |
| 2026-05-08 08:40 | 22.10340 | 94.05726 | 33903 ft | 430 kts | 271° |
| 2026-05-08 08:41 | 22.10832 | 93.99309 | 33911 ft | 429 kts | 271° |
| 2026-05-08 08:41 | 22.11312 | 93.92887 | 33916 ft | 429 kts | 271° |
| 2026-05-08 08:42 | 22.11782 | 93.86465 | 33928 ft | 429 kts | 271° |
| 2026-05-08 08:42 | 22.12252 | 93.80053 | 33933 ft | 429 kts | 271° |
| 2026-05-08 08:43 | 22.12723 | 93.73626 | 33948 ft | 429 kts | 271° |
| 2026-05-08 08:43 | 22.13191 | 93.67202 | 33963 ft | 430 kts | 271° |
| 2026-05-08 08:44 | 22.13657 | 93.60779 | 33969 ft | 429 kts | 271° |
| 2026-05-08 08:44 | 22.14120 | 93.54361 | 33969 ft | 429 kts | 271° |
| 2026-05-08 08:45 | 22.14577 | 93.47947 | 33978 ft | 428 kts | 271° |
| 2026-05-08 08:45 | 22.15031 | 93.41538 | 33975 ft | 429 kts | 271° |
| 2026-05-08 08:46 | 22.15491 | 93.35163 | 33969 ft | 428 kts | 271° |
| 2026-05-08 08:46 | 22.15947 | 93.28769 | 33957 ft | 428 kts | 271° |
| 2026-05-08 08:47 | 22.16400 | 93.22373 | 33949 ft | 428 kts | 271° |
| 2026-05-08 08:47 | 22.16847 | 93.15973 | 33937 ft | 427 kts | 271° |
| 2026-05-08 08:48 | 22.17285 | 93.09583 | 33928 ft | 427 kts | 271° |
| 2026-05-08 08:48 | 22.17724 | 93.03194 | 33912 ft | 427 kts | 271° |
| 2026-05-08 08:49 | 22.18163 | 92.96799 | 33907 ft | 427 kts | 271° |
| 2026-05-08 08:49 | 22.18606 | 92.90401 | 33900 ft | 427 kts | 271° |
| 2026-05-08 08:50 | 22.19046 | 92.84018 | 33892 ft | 426 kts | 271° |
| 2026-05-08 08:50 | 22.19470 | 92.77641 | 33888 ft | 427 kts | 271° |
| 2026-05-08 08:51 | 22.19889 | 92.71255 | 33884 ft | 426 kts | 271° |
| 2026-05-08 08:51 | 22.20316 | 92.64875 | 33878 ft | 426 kts | 271° |
| 2026-05-08 08:52 | 22.20718 | 92.58502 | 33869 ft | 426 kts | 270° |
| 2026-05-08 08:52 | 22.21092 | 92.52131 | 33866 ft | 426 kts | 270° |
| 2026-05-08 08:53 | 22.21469 | 92.45756 | 33859 ft | 426 kts | 270° |
| 2026-05-08 08:53 | 22.21849 | 92.39414 | 33855 ft | 426 kts | 270° |
| 2026-05-08 08:54 | 22.22236 | 92.33028 | 33856 ft | 426 kts | 270° |
| 2026-05-08 08:54 | 22.22603 | 92.26654 | 33854 ft | 425 kts | 267° |
| 2026-05-08 08:55 | 22.22263 | 92.23513 | 33855 ft | 420 kts | 255° |
| 2026-05-08 08:55 | 22.21552 | 92.20467 | 33866 ft | 420 kts | 254° |
| 2026-05-08 08:55 | 22.20096 | 92.14360 | 33861 ft | 420 kts | 254° |
| 2026-05-08 08:56 | 22.18619 | 92.08248 | 33867 ft | 421 kts | 254° |
| 2026-05-08 08:56 | 22.17151 | 92.02138 | 33864 ft | 421 kts | 254° |
| 2026-05-08 08:57 | 22.15674 | 91.96015 | 33871 ft | 421 kts | 254° |
| 2026-05-08 08:57 | 22.14193 | 91.89893 | 33873 ft | 422 kts | 254° |
| 2026-05-08 08:58 | 22.12716 | 91.83773 | 33875 ft | 422 kts | 254° |
| 2026-05-08 08:58 | 22.11240 | 91.77650 | 33875 ft | 422 kts | 254° |
| 2026-05-08 08:59 | 22.09759 | 91.71520 | 33875 ft | 422 kts | 254° |
| 2026-05-08 08:59 | 22.08267 | 91.65383 | 33877 ft | 422 kts | 254° |
| 2026-05-08 09:00 | 22.06778 | 91.59253 | 33878 ft | 423 kts | 254° |
| 2026-05-08 09:00 | 22.05282 | 91.53120 | 33879 ft | 423 kts | 254° |
| 2026-05-08 09:01 | 22.03790 | 91.46994 | 33874 ft | 423 kts | 254° |
| 2026-05-08 09:01 | 22.02297 | 91.40867 | 33874 ft | 423 kts | 254° |
| 2026-05-08 09:02 | 22.00799 | 91.34746 | 33872 ft | 422 kts | 254° |
| 2026-05-08 09:02 | 21.99548 | 91.29662 | 33875 ft | 422 kts | 254° |
| 2026-05-08 09:03 | 21.97788 | 91.22514 | 33865 ft | 422 kts | 254° |
| 2026-05-08 09:03 | 21.96538 | 91.17439 | 33862 ft | 422 kts | 254° |
| 2026-05-08 09:04 | 21.94794 | 91.10331 | 33862 ft | 422 kts | 254° |
| 2026-05-08 09:04 | 21.93535 | 91.05211 | 33863 ft | 423 kts | 254° |
| 2026-05-08 09:05 | 21.92025 | 90.99088 | 33864 ft | 423 kts | 254° |
| 2026-05-08 09:05 | 21.90259 | 90.91978 | 33865 ft | 423 kts | 254° |
| 2026-05-08 09:06 | 21.88737 | 90.85847 | 33868 ft | 423 kts | 254° |
| 2026-05-08 09:06 | 21.87475 | 90.80760 | 33863 ft | 423 kts | 254° |
| 2026-05-08 09:07 | 21.85953 | 90.74640 | 33866 ft | 423 kts | 254° |
| 2026-05-08 09:07 | 21.84429 | 90.68524 | 33869 ft | 423 kts | 254° |
| 2026-05-08 09:08 | 21.82899 | 90.62406 | 33868 ft | 423 kts | 254° |
| 2026-05-08 09:08 | 21.81369 | 90.56297 | 33868 ft | 423 kts | 254° |
| 2026-05-08 09:09 | 21.79838 | 90.50182 | 33869 ft | 423 kts | 254° |
| 2026-05-08 09:09 | 21.78307 | 90.44075 | 33866 ft | 423 kts | 254° |
| 2026-05-08 09:10 | 21.76778 | 90.37968 | 33866 ft | 422 kts | 254° |
| 2026-05-08 09:10 | 21.75249 | 90.31870 | 33869 ft | 422 kts | 253° |
| 2026-05-08 09:11 | 21.73711 | 90.25772 | 33865 ft | 422 kts | 253° |
| 2026-05-08 09:11 | 21.72167 | 90.19680 | 33864 ft | 422 kts | 253° |
| 2026-05-08 09:12 | 21.70621 | 90.13583 | 33868 ft | 423 kts | 253° |
| 2026-05-08 09:12 | 21.69073 | 90.07482 | 33869 ft | 423 kts | 253° |
| 2026-05-08 09:13 | 21.67529 | 90.01385 | 33866 ft | 422 kts | 253° |
| 2026-05-08 09:13 | 21.65981 | 89.95295 | 33865 ft | 422 kts | 253° |
| 2026-05-08 09:14 | 21.64428 | 89.89199 | 33864 ft | 422 kts | 253° |